Alexander, ND

11:00 PM CDT on September 30, 2014 (GMT -0500)
Bison pasture GRASS | Change Station
CLOSE
Current Station
Personal Weather Station
Location: Alexander, ND
Elevation: 2260 ft
Nearby Weather Stations

Elev 2260 ft 47.87 °N, 103.62 °W | Updated 13 minutes ago

Overcast
Overcast
50.3 °F
Feels Like 50.3 °F
N
2.0
Wind Variable Wind from NNE

Today
High -- | Low -- °F
--% Chance of Precip.
Yesterday
High -- | Low -- °F
Precip. -- in
7:52 AM 7:35 PM
Waxing Crescent, 43% visible
Pressure 29.48 in
Visibility 2.5 miles
Clouds Overcast 100 ft
Dew Point 50 °F
Humidity 97%
Rainfall 0.13 in
Snow Depth Not available.
UV 0 out of 12
Pollen .40 out of 12
Air Quality Not available.
Flu Activity Not available.
METAR KS25 010255Z AUTO 35005KT 2 1/2SM BR OVC001 10/10 A2948 RMK AO2

More Conditions Fewer Conditions

Pressure 29.48 in
Visibility 2.5 miles
Clouds Overcast 100 ft
Dew Point 50 °F
Humidity 97%
Rainfall 0.13 in
Snow Depth Not available.
UV 0 out of 12
Pollen .40 out of 12
Air Quality Not available.
Flu Activity Not available.
METAR KS25 010255Z AUTO 35005KT 2 1/2SM BR OVC001 10/10 A2948 RMK AO2

More Conditions Fewer Conditions

10-Day Weather Forecast

Almanac

Astronomy

Sep. 30, 2014 Rise Set
Actual Time 7:52 AM CDT 7:35 PM CDT
Civil Twilight 7:21 AM CDT 8:06 PM CDT
Nautical Twilight 6:45 AM CDT 8:42 PM CDT
Astronomical Twilight 6:08 AM CDT 9:19 PM CDT
Moon 2:22 PM CDT (9/30) 11:48 PM CDT (9/30)
Length of Visible Light 12h 44m
Length of Day
11h 43m
Tomorrow will be 3m 26s shorter.
Waxing Crescent, 43% of the Moon is Illuminated
Oct 1
Waxing Crescent
Oct 1
First Quarter
Oct 8
Full
Oct 15
Last Quarter
Oct 23
New

Today's Extremes

State Highs State Lows

Community

WunderPhotos

Upload Photos

1,757,840 photos uploaded!

Nearby

Snow Depth

Station Depth Elevation
No new snow has been reported.

Earthquake Activity

City Distance Mag. Time & Date
No recent earthquake activity has been reported nearby.
Minimum magnitude displayed is 2.5.

Coastal Water Temperatures

Place Temperature
No Stations Reporting

Nearby Weather Stations